Time;durP1;ratioP1;P1;durP2;ratioP2;P2;SDS_P1;SDS_P2;PMS_P1;PMS_P2;Temp;Humidity;BMP_temperature;BMP_pressure;BME280_temperature;BME280_humidity;BME280_pressure;Samples;Min_cycle;Max_cycle;Signal;HPM_P1;HPM_P2
2023/03/19 00:01:04;;;;;;;13.40;11.37;;;10.30;99.90;;;-141.84;63.15;19840.25;5069457;28;20719;-76
2023/03/19 00:03:33;;;;;;;12.77;11.20;;;10.30;99.90;;;-141.84;62.84;19846.34;5069659;28;20228;-78
2023/03/19 00:06:02;;;;;;;14.53;11.93;;;10.40;99.90;;;-141.84;62.77;19799.63;5068952;28;20316;-78
2023/03/19 00:08:30;;;;;;;12.30;11.00;;;10.40;99.90;;;-141.84;62.48;19834.16;5068515;28;20208;-75
2023/03/19 00:10:59;;;;;;;12.47;11.17;;;10.40;99.90;;;-141.84;62.64;19856.53;5069414;28;20200;-77
2023/03/19 00:13:27;;;;;;;13.27;10.23;;;10.40;99.90;;;-141.84;62.25;19838.22;5068545;28;20229;-76
2023/03/19 00:15:55;;;;;;;13.67;11.20;;;10.40;99.90;;;-141.84;62.02;19866.69;5068958;28;20622;-76
2023/03/19 00:18:24;;;;;;;14.87;11.50;;;10.50;99.90;;;-141.84;62.49;19836.19;5068753;28;20255;-75
2023/03/19 00:20:52;;;;;;;14.80;11.20;;;10.50;99.90;;;-141.84;62.65;19860.59;5069676;28;20244;-76
2023/03/19 00:23:21;;;;;;;15.70;11.37;;;10.40;99.90;;;-141.84;62.04;19858.56;5072591;28;20192;-75
2023/03/19 00:25:49;;;;;;;14.73;10.80;;;10.50;99.90;;;-141.84;61.79;19832.13;5072210;28;20224;-75
2023/03/19 00:28:18;;;;;;;12.53;10.50;;;10.50;99.90;;;-141.84;61.57;19801.66;5072002;28;20231;-75
2023/03/19 00:30:46;;;;;;;15.80;11.27;;;10.50;99.90;;;-141.84;61.22;19921.56;5072298;28;20258;-75
2023/03/19 00:33:14;;;;;;;12.43;10.60;;;10.60;99.90;;;-141.84;61.06;19840.25;5071308;28;20604;-77
2023/03/19 00:35:42;;;;;;;13.33;10.27;;;10.60;99.90;;;-141.84;61.53;19819.94;5072070;28;20286;-77
2023/03/19 00:38:11;;;;;;;12.47;9.90;;;10.60;99.90;;;-141.84;61.42;19858.56;5071860;28;20228;-76
2023/03/19 00:40:41;;;;;;;12.83;10.60;;;10.60;99.90;;;-141.84;61.45;19858.56;5071774;28;20232;-77
2023/03/19 00:43:09;;;;;;;13.33;10.73;;;10.60;99.90;;;-141.84;61.50;19846.34;5071513;28;20278;-76
2023/03/19 00:45:37;;;;;;;14.93;10.90;;;10.50;99.90;;;-141.84;61.19;19860.59;5071615;28;20786;-77
2023/03/19 00:48:06;;;;;;;11.60;9.77;;;10.50;99.90;;;-141.84;61.22;19858.56;5071573;28;20235;-77
2023/03/19 00:50:35;;;;;;;13.43;9.97;;;10.60;99.90;;;-141.84;61.20;19889.03;5071416;28;20201;-75
2023/03/19 00:53:03;;;;;;;12.30;10.40;;;10.50;99.90;;;-141.84;60.55;19860.59;5071874;28;20600;-76
2023/03/19 00:55:31;;;;;;;12.17;10.20;;;10.60;99.90;;;-141.84;60.33;19858.56;5071296;28;20727;-76
2023/03/19 00:58:01;;;;;;;12.70;9.67;;;10.60;99.90;;;-141.84;60.63;19862.63;5071472;28;20244;-76
2023/03/19 01:00:29;;;;;;;12.40;9.90;;;10.60;99.90;;;-141.84;60.65;19864.66;5071385;28;20221;-75
2023/03/19 01:02:57;;;;;;;12.63;10.27;;;10.60;99.90;;;-141.84;60.90;19874.81;5071577;28;20247;-75
2023/03/19 01:05:26;;;;;;;12.80;10.40;;;10.60;99.90;;;-141.84;60.27;19862.63;5071712;28;20212;-76
2023/03/19 01:07:55;;;;;;;14.27;10.33;;;10.70;99.90;;;-141.84;59.70;19878.88;5072161;28;20235;-75
2023/03/19 01:10:24;;;;;;;15.00;10.23;;;10.70;99.90;;;-141.84;59.55;19905.28;5071053;28;20716;-76
2023/03/19 01:12:53;;;;;;;11.83;10.40;;;10.70;99.90;;;-141.84;59.30;19909.34;5071172;28;20236;-76
2023/03/19 01:15:22;;;;;;;14.27;10.60;;;10.70;99.90;;;-141.84;59.01;19884.97;5071348;28;20242;-74
2023/03/19 01:17:50;;;;;;;12.47;10.77;;;10.70;99.90;;;-141.84;59.33;19878.88;5071435;28;20228;-75
2023/03/19 01:20:22;;;;;;;13.40;9.93;;;10.70;99.90;;;-141.84;58.83;19891.06;5074019;28;20205;-76
2023/03/19 01:22:51;;;;;;;13.00;10.00;;;10.70;99.90;;;-141.84;58.68;19901.22;5074708;28;20287;-75
2023/03/19 01:25:19;;;;;;;11.63;10.10;;;10.70;99.90;;;-141.84;58.32;19907.31;5071120;28;20505;-76
2023/03/19 01:27:47;;;;;;;11.97;9.57;;;10.70;99.90;;;-141.84;58.01;19913.44;5071160;28;20751;-76
2023/03/19 01:30:17;;;;;;;13.60;10.80;;;10.80;99.90;;;-141.84;57.79;19915.47;5070883;28;20787;-74
2023/03/19 01:32:47;;;;;;;13.20;10.30;;;10.80;99.90;;;-141.84;58.37;19903.25;5069657;28;20232;-75
2023/03/19 01:35:15;;;;;;;13.37;10.10;;;10.70;99.90;;;-141.84;58.14;19913.44;5071591;28;20248;-75
2023/03/19 01:37:44;;;;;;;13.37;10.30;;;10.70;99.90;;;-141.84;58.72;19909.34;5070423;28;20228;-75
2023/03/19 01:40:14;;;;;;;14.90;10.80;;;10.70;99.90;;;-141.84;58.68;19872.78;5070376;28;20228;-76
2023/03/19 01:42:54;;;;;;;13.00;10.10;;;10.70;99.90;;;-141.84;58.23;19917.50;5070709;28;20228;-76
2023/03/19 01:45:37;;;;;;;12.53;9.70;;;10.70;99.90;;;-141.84;58.47;19891.06;5071003;28;20224;-77
2023/03/19 01:48:18;;;;;;;14.37;10.60;;;10.70;99.90;;;-141.84;58.40;19915.47;5070476;28;20232;-78
2023/03/19 01:50:52;;;;;;;12.57;10.57;;;10.70;99.90;;;-141.84;58.40;19878.88;5070574;28;20703;-75
2023/03/19 01:53:26;;;;;;;12.03;9.63;;;10.70;99.90;;;-141.84;59.09;19876.84;5071220;28;20676;-75
2023/03/19 01:56:02;;;;;;;11.53;10.10;;;10.70;99.90;;;-141.84;58.89;19874.81;5071271;28;20219;-74
2023/03/19 01:58:31;;;;;;;14.33;10.33;;;10.70;99.90;;;-141.84;59.03;19880.91;5070298;28;20240;-76
2023/03/19 02:00:59;;;;;;;12.60;10.23;;;10.60;99.90;;;-141.84;59.31;19878.88;5070479;28;20480;-74
2023/03/19 02:03:30;;;;;;;13.90;10.53;;;10.60;99.90;;;-141.84;58.54;19862.63;5070424;28;20229;-77
2023/03/19 02:05:59;;;;;;;13.10;10.60;;;10.70;99.90;;;-141.84;59.30;19878.88;5070356;28;20232;-76
2023/03/19 02:08:29;;;;;;;11.63;10.27;;;10.60;99.90;;;-141.84;59.78;19842.28;5071504;28;20295;-74
2023/03/19 02:10:59;;;;;;;14.10;10.77;;;10.60;99.90;;;-141.84;59.74;19858.56;5070932;28;20211;-76
2023/03/19 02:13:27;;;;;;;13.27;11.67;;;10.50;99.90;;;-141.84;59.69;19887.00;5069899;28;20225;-76
2023/03/19 02:15:57;;;;;;;13.73;11.03;;;10.50;99.90;;;-141.84;59.03;19891.06;5070441;28;20238;-75
2023/03/19 02:18:26;;;;;;;13.73;10.73;;;10.50;99.90;;;-141.84;59.53;19874.81;5070063;28;20310;-76
2023/03/19 02:21:05;;;;;;;13.30;10.90;;;10.50;99.90;;;-141.84;59.34;19864.66;5069729;28;20251;-76
2023/03/19 02:23:45;;;;;;;12.23;10.80;;;10.50;99.90;;;-141.84;59.82;19880.91;5069979;28;20551;-75
2023/03/19 02:26:17;;;;;;;15.17;11.07;;;10.50;99.90;;;-141.84;58.97;19911.41;5070490;28;20220;-74
2023/03/19 02:28:48;;;;;;;12.80;10.67;;;10.50;99.90;;;-141.84;59.15;19882.94;5069465;28;20257;-76
2023/03/19 02:31:17;;;;;;;11.97;10.03;;;10.50;99.90;;;-141.84;59.52;19846.34;5069579;28;20217;-77
2023/03/19 02:33:56;;;;;;;13.90;10.90;;;10.50;99.90;;;-141.84;59.27;19854.50;5069898;28;20228;-76
2023/03/19 02:36:30;;;;;;;13.17;10.83;;;10.50;99.90;;;-141.84;59.32;19889.03;5069523;28;20232;-77
2023/03/19 02:39:02;;;;;;;12.43;10.00;;;10.50;99.90;;;-141.84;58.84;19842.28;5069773;28;20219;-76
2023/03/19 02:41:34;;;;;;;12.90;10.90;;;10.50;99.90;;;-141.84;59.47;19884.97;5069910;28;20196;-75
2023/03/19 02:44:04;;;;;;;14.70;11.37;;;10.40;99.90;;;-141.84;59.79;19842.28;5070034;28;20192;-74
2023/03/19 02:46:32;;;;;;;12.90;11.13;;;10.40;99.90;;;-141.84;58.96;19905.28;5069654;28;20575;-76
2023/03/19 02:49:01;;;;;;;13.27;10.70;;;10.40;99.90;;;-141.84;58.03;19907.31;5069367;28;20224;-75
2023/03/19 02:51:29;;;;;;;11.77;10.10;;;10.50;99.90;;;-141.84;57.57;19889.03;5069541;28;20720;-74
2023/03/19 02:53:59;;;;;;;14.73;10.83;;;10.60;99.90;;;-141.84;58.44;19917.50;5068819;28;20228;-76
2023/03/19 02:56:27;;;;;;;14.57;11.17;;;10.60;99.90;;;-141.84;58.44;19876.84;5069676;28;20209;-74
2023/03/19 02:58:57;;;;;;;13.13;10.67;;;10.50;99.90;;;-141.84;58.82;19887.00;5070021;28;20192;-76
2023/03/19 03:01:25;;;;;;;12.67;9.73;;;10.50;99.90;;;-141.84;58.80;19866.69;5069505;28;20236;-76
2023/03/19 03:03:53;;;;;;;14.43;10.00;;;10.50;99.90;;;-141.84;58.94;19846.34;5069454;28;20228;-75
2023/03/19 03:06:22;;;;;;;13.47;10.10;;;10.50;99.90;;;-141.84;58.26;19884.97;5069326;28;20239;-77
2023/03/19 03:08:50;;;;;;;15.23;10.50;;;10.50;99.90;;;-141.84;58.77;19919.53;5069320;28;20228;-74
2023/03/19 03:11:19;;;;;;;13.87;10.53;;;10.50;99.90;;;-141.84;58.75;19856.53;5069409;28;20248;-74
2023/03/19 03:13:47;;;;;;;12.97;10.00;;;10.50;99.90;;;-141.84;58.61;19850.41;5069346;28;20224;-76
2023/03/19 03:16:17;;;;;;;14.67;10.43;;;10.40;99.90;;;-141.84;58.05;19878.88;5069121;28;20232;-76
2023/03/19 03:18:45;;;;;;;14.07;10.50;;;10.50;99.90;;;-141.84;57.22;19915.47;5069184;28;20305;-75
2023/03/19 03:21:14;;;;;;;13.47;10.70;;;10.50;99.90;;;-141.84;56.94;19909.34;5069314;28;20236;-75
2023/03/19 03:23:42;;;;;;;11.43;10.23;;;10.60;99.90;;;-141.84;57.46;19901.22;5069228;28;20229;-76
2023/03/19 03:26:10;;;;;;;12.40;9.73;;;10.60;99.90;;;-141.84;57.58;19866.69;5070197;28;20211;-75
2023/03/19 03:28:38;;;;;;;11.40;10.07;;;10.60;99.90;;;-141.84;58.16;19882.94;5069500;28;20228;-74
2023/03/19 03:31:06;;;;;;;12.23;10.23;;;10.60;99.90;;;-141.84;57.31;19876.84;5070150;28;20232;-76
2023/03/19 03:33:36;;;;;;;13.73;9.80;;;10.50;99.90;;;-141.84;57.79;19893.09;5070310;28;20221;-75
2023/03/19 03:36:05;;;;;;;12.07;10.13;;;10.50;99.90;;;-141.84;57.04;19884.97;5069747;28;20228;-76
2023/03/19 03:38:33;;;;;;;11.17;10.03;;;10.60;99.90;;;-141.84;57.67;19917.50;5069259;28;20291;-76
2023/03/19 03:41:02;;;;;;;13.13;10.83;;;10.60;99.90;;;-141.84;56.79;19913.44;5069844;28;20201;-75
2023/03/19 03:43:30;;;;;;;14.07;9.80;;;10.60;99.90;;;-141.84;57.27;19923.59;5069021;28;20239;-75
2023/03/19 03:45:58;;;;;;;11.53;10.23;;;10.60;99.90;;;-141.84;57.00;19911.41;5069641;28;20228;-75
2023/03/19 03:48:27;;;;;;;14.40;10.43;;;10.60;99.90;;;-141.84;56.79;19937.81;5076425;28;20254;-78
2023/03/19 03:50:56;;;;;;;14.47;9.80;;;10.60;99.90;;;-141.84;56.75;19929.69;5071073;28;20703;-75
2023/03/19 03:53:25;;;;;;;14.60;10.43;;;10.70;99.90;;;-141.84;56.16;19954.06;5071105;28;20200;-76
2023/03/19 03:55:53;;;;;;;15.63;10.97;;;10.70;99.90;;;-141.84;55.86;19954.06;5071236;28;20288;-75
2023/03/19 03:58:22;;;;;;;12.43;10.23;;;10.70;99.90;;;-141.84;56.59;19915.47;5073170;28;20630;-75
2023/03/19 04:00:51;;;;;;;12.60;10.30;;;10.70;99.90;;;-141.84;57.45;19903.25;5073013;28;20247;-75
2023/03/19 04:03:19;;;;;;;12.43;10.43;;;10.60;99.90;;;-141.84;57.68;19891.06;5072907;28;20232;-74
2023/03/19 04:05:47;;;;;;;12.87;10.80;;;10.50;99.90;;;-141.84;57.28;19893.09;5072972;28;20221;-76
2023/03/19 04:08:17;;;;;;;13.27;10.77;;;10.50;99.90;;;-141.84;56.52;19899.19;5075138;28;20218;-76
2023/03/19 04:10:45;;;;;;;13.33;10.63;;;10.50;99.90;;;-141.84;56.76;19903.25;5072956;28;20712;-76
2023/03/19 04:13:13;;;;;;;15.47;9.43;;;10.50;99.90;;;-141.84;56.77;19887.00;5072864;28;20239;-75
2023/03/19 04:15:43;;;;;;;15.73;10.70;;;10.50;99.90;;;-141.84;57.78;19866.69;5072532;28;20241;-75
2023/03/19 04:18:11;;;;;;;12.53;10.23;;;10.50;99.90;;;-141.84;57.55;19874.81;5072396;28;20676;-73
2023/03/19 04:20:40;;;;;;;11.60;10.30;;;10.50;99.90;;;-141.84;57.47;19882.94;5072319;28;20208;-76
2023/03/19 04:23:08;;;;;;;10.83;9.47;;;10.40;99.90;;;-141.84;57.50;19850.41;5060830;28;20251;-75
2023/03/19 04:25:40;;;;;;;12.30;10.17;;;10.40;99.90;;;-141.84;58.07;19864.66;5072325;28;20224;-75
2023/03/19 04:28:09;;;;;;;14.97;10.37;;;10.40;99.90;;;-141.84;58.09;19826.03;5072385;28;20605;-75
2023/03/19 04:30:37;;;;;;;12.23;9.53;;;10.30;99.90;;;-141.84;58.28;19830.09;5072163;28;20231;-76
2023/03/19 04:33:06;;;;;;;13.70;9.73;;;10.30;99.90;;;-141.84;58.32;19882.94;5072757;28;20220;-76
2023/03/19 04:35:35;;;;;;;13.17;10.47;;;10.30;99.90;;;-141.84;59.12;19854.50;5071708;28;20216;-77
2023/03/19 04:38:04;;;;;;;11.87;10.00;;;10.30;99.90;;;-141.84;59.56;19813.84;5072317;28;20208;-77
2023/03/19 04:40:32;;;;;;;11.60;10.20;;;10.20;99.90;;;-141.84;60.18;19807.75;5071766;28;20700;-76
2023/03/19 04:43:02;;;;;;;12.93;9.87;;;10.10;99.90;;;-141.84;60.47;19828.06;5072099;28;20318;-75
2023/03/19 04:45:31;;;;;;;13.37;10.57;;;10.00;99.90;;;-141.84;60.48;19805.72;5071729;28;20228;-76
2023/03/19 04:47:59;;;;;;;13.23;10.40;;;10.00;99.90;;;-141.84;60.14;19787.41;5071787;28;20229;-75
2023/03/19 04:50:28;;;;;;;11.67;10.07;;;9.90;99.90;;;-141.84;60.95;19795.53;5071894;28;20193;-76
2023/03/19 04:52:56;;;;;;;11.47;10.27;;;9.80;99.90;;;-141.84;60.92;19783.34;5071719;28;20231;-75
2023/03/19 04:55:24;;;;;;;11.30;9.93;;;9.70;99.90;;;-141.84;61.41;19752.88;5071429;28;20228;-78
2023/03/19 04:57:52;;;;;;;11.83;10.03;;;9.60;99.90;;;-141.84;62.35;19732.53;5071481;28;20237;-75
2023/03/19 05:00:22;;;;;;;12.67;9.80;;;9.50;99.90;;;-141.84;63.02;19718.31;5071699;28;20239;-75
2023/03/19 05:02:50;;;;;;;13.40;10.43;;;9.40;99.90;;;-141.84;63.38;19726.44;5071797;28;20232;-76
2023/03/19 05:05:18;;;;;;;15.10;10.63;;;9.20;99.90;;;-141.84;62.11;19728.47;5072432;28;20201;-76
2023/03/19 05:07:47;;;;;;;16.23;10.57;;;9.20;99.90;;;-141.84;62.49;19720.34;5071387;28;20220;-75
2023/03/19 05:10:15;;;;;;;11.57;9.77;;;9.20;99.90;;;-141.84;62.93;19722.38;5071000;28;20236;-76
2023/03/19 05:12:43;;;;;;;13.30;10.40;;;9.20;99.90;;;-141.84;62.82;19695.97;5071237;28;20236;-75
2023/03/19 05:15:12;;;;;;;14.80;11.40;;;9.10;99.90;;;-141.84;63.17;19714.25;5071116;28;20240;-76
2023/03/19 05:17:42;;;;;;;12.40;10.60;;;9.10;99.90;;;-141.84;63.20;19708.16;5070835;28;20207;-76
2023/03/19 05:20:13;;;;;;;15.43;10.50;;;9.00;99.90;;;-141.84;63.73;19671.56;5071455;28;20243;-77
2023/03/19 05:22:41;;;;;;;15.67;10.70;;;9.00;99.90;;;-141.84;63.96;19704.09;5070721;28;20232;-75
2023/03/19 05:25:09;;;;;;;13.50;11.37;;;8.90;99.90;;;-141.84;63.71;19693.94;5070834;28;20228;-75
2023/03/19 05:27:38;;;;;;;14.50;11.23;;;8.90;99.90;;;-141.84;64.07;19677.66;5071163;28;20235;-77
2023/03/19 05:30:09;;;;;;;11.87;10.63;;;8.90;99.90;;;-141.84;62.52;19728.47;5071505;28;20661;-76
2023/03/19 05:32:39;;;;;;;11.53;10.07;;;9.00;99.90;;;-141.84;63.14;19714.25;5071174;28;20193;-75
2023/03/19 05:35:10;;;;;;;14.83;11.00;;;9.00;99.90;;;-141.84;63.57;19710.19;5071298;28;20241;-77
2023/03/19 05:37:38;;;;;;;19.50;12.03;;;9.10;99.90;;;-141.84;61.61;19732.53;5070458;28;20252;-76
2023/03/19 05:40:07;;;;;;;16.50;11.17;;;9.20;99.90;;;-141.84;61.06;19740.69;5070519;28;20233;-76
2023/03/19 05:42:36;;;;;;;15.50;11.03;;;9.30;99.90;;;-141.84;61.35;19769.13;5071014;28;20243;-74
2023/03/19 05:45:05;;;;;;;13.90;10.70;;;9.40;99.90;;;-141.84;60.61;19785.38;5071163;28;20235;-76
2023/03/19 05:47:34;;;;;;;14.67;10.63;;;9.50;99.90;;;-141.84;60.45;19771.16;5070568;28;20200;-74
2023/03/19 05:50:02;;;;;;;12.90;10.77;;;9.50;99.90;;;-141.84;59.49;19793.50;5071703;28;20199;-75
2023/03/19 05:52:32;;;;;;;12.80;10.43;;;9.60;99.90;;;-141.84;59.92;19773.19;5070328;28;20225;-75
2023/03/19 05:55:00;;;;;;;12.90;10.67;;;9.60;99.90;;;-141.84;60.27;19781.31;5070908;28;20552;-76
2023/03/19 05:57:28;;;;;;;12.80;10.40;;;9.60;99.90;;;-141.84;59.36;19801.66;5070729;28;20311;-77
2023/03/19 05:59:57;;;;;;;14.13;10.97;;;9.70;99.90;;;-141.84;59.61;19781.31;5070631;28;20602;-74
2023/03/19 06:02:25;;;;;;;13.47;10.37;;;9.70;99.90;;;-141.84;60.65;19750.84;5070842;28;20208;-78
2023/03/19 06:04:53;;;;;;;13.00;10.80;;;9.70;99.90;;;-141.84;60.00;19787.41;5071340;28;20197;-76
2023/03/19 06:07:22;;;;;;;13.07;10.30;;;9.70;99.90;;;-141.84;60.82;19748.81;5070425;28;20229;-76
2023/03/19 06:09:51;;;;;;;12.20;10.27;;;9.60;99.90;;;-141.84;61.20;19785.38;5070542;28;20235;-76
2023/03/19 06:12:20;;;;;;;13.83;10.17;;;9.60;99.90;;;-141.84;60.28;19797.59;5070295;28;20220;-75
2023/03/19 06:14:48;;;;;;;13.67;11.30;;;9.70;99.90;;;-141.84;60.20;19805.72;5069862;28;20763;-76
2023/03/19 06:17:17;;;;;;;13.00;10.37;;;9.70;99.90;;;-141.84;60.33;19793.50;5071972;28;20234;-75
2023/03/19 06:19:45;;;;;;;12.70;10.60;;;9.80;99.90;;;-141.84;59.64;19826.03;5069802;28;20224;-75
2023/03/19 06:22:13;;;;;;;13.27;10.47;;;9.80;99.90;;;-141.84;60.07;19789.44;5069707;28;20700;-74
2023/03/19 06:24:41;;;;;;;10.80;9.60;;;9.90;99.90;;;-141.84;58.91;19834.16;5070227;28;20235;-76
2023/03/19 06:27:11;;;;;;;12.87;10.03;;;10.00;99.90;;;-141.84;58.92;19834.16;5070345;28;20716;-76
2023/03/19 06:29:39;;;;;;;13.37;10.10;;;10.00;99.90;;;-141.84;58.53;19834.16;5070639;28;20205;-75
2023/03/19 06:32:09;;;;;;;14.63;9.47;;;10.10;99.90;;;-141.84;58.72;19840.25;5071432;28;20201;-75
2023/03/19 06:34:37;;;;;;;14.07;10.37;;;10.10;99.90;;;-141.84;58.51;19834.16;5070624;28;20228;-76
2023/03/19 06:37:06;;;;;;;14.47;10.30;;;10.20;99.90;;;-141.84;57.76;19850.41;5069868;28;20239;-75
2023/03/19 06:39:34;;;;;;;14.30;10.90;;;10.30;99.90;;;-141.84;57.09;19905.28;5031640;28;20232;-77
2023/03/19 06:42:02;;;;;;;13.27;10.40;;;10.40;99.90;;;-141.84;56.46;19927.66;5050087;28;20604;-75
2023/03/19 06:44:32;;;;;;;13.07;9.53;;;10.50;99.90;;;-141.84;56.25;19956.09;5050412;28;20227;-76
2023/03/19 06:47:00;;;;;;;13.97;10.63;;;10.60;99.90;;;-141.84;55.74;19937.81;5051289;28;20590;-78
2023/03/19 06:49:28;;;;;;;13.47;10.00;;;10.70;99.90;;;-141.84;55.98;19960.16;5051066;28;20217;-76
2023/03/19 06:51:56;;;;;;;11.90;9.60;;;10.80;99.90;;;-141.84;56.20;19921.56;5051675;28;20236;-76
2023/03/19 06:54:24;;;;;;;13.67;10.30;;;10.80;99.90;;;-141.84;56.30;20015.03;5070521;28;20768;-74
2023/03/19 06:56:53;;;;;;;12.83;10.37;;;10.90;99.90;;;-141.84;55.25;19982.53;5070944;28;20221;-75
2023/03/19 06:59:21;;;;;;;13.50;10.13;;;10.90;99.90;;;-141.84;54.90;20002.84;5071243;28;20209;-76
2023/03/19 07:01:51;;;;;;;14.13;9.30;;;11.10;99.90;;;-141.84;55.15;20002.84;5070830;28;20700;-76
2023/03/19 07:04:20;;;;;;;15.77;11.40;;;11.10;99.90;;;-141.84;55.14;20023.19;5070431;28;20243;-75
2023/03/19 07:06:48;;;;;;;11.80;10.03;;;11.20;99.90;;;-141.84;54.55;20006.91;5071502;28;20221;-77
2023/03/19 07:09:16;;;;;;;13.43;10.90;;;11.20;99.90;;;-141.84;54.71;20015.03;5070619;28;20226;-76
2023/03/19 07:11:44;;;;;;;13.97;10.17;;;11.30;99.90;;;-141.84;54.58;20017.09;5073823;28;20228;-77
2023/03/19 07:14:13;;;;;;;13.30;10.50;;;11.40;99.90;;;-141.84;54.38;19994.72;5071510;28;20201;-76
2023/03/19 07:16:41;;;;;;;12.50;10.23;;;11.40;99.90;;;-141.84;54.27;20067.88;5070961;28;20246;-76
2023/03/19 07:19:10;;;;;;;13.10;9.10;;;11.50;99.90;;;-141.84;54.03;20025.22;5071553;28;20815;-76
2023/03/19 07:21:39;;;;;;;13.40;9.63;;;11.60;99.90;;;-141.84;53.95;20033.34;5071541;28;20229;-75
2023/03/19 07:24:07;;;;;;;11.10;9.63;;;11.70;99.90;;;-141.84;53.47;20053.66;5072159;28;20224;-76
2023/03/19 07:26:35;;;;;;;12.63;9.50;;;11.80;99.90;;;-141.84;53.33;20045.53;5072265;28;20197;-76
2023/03/19 07:29:03;;;;;;;11.23;9.10;;;11.80;99.90;;;-141.84;53.42;20049.59;5071726;28;20211;-76
2023/03/19 07:31:32;;;;;;;11.23;8.60;;;11.90;99.90;;;-141.84;53.74;20067.88;5074033;28;20235;-76
2023/03/19 07:34:00;;;;;;;11.10;9.37;;;11.90;99.90;;;-141.84;52.98;20116.66;5076157;28;20780;-76
2023/03/19 07:36:30;;;;;;;13.27;9.13;;;12.10;99.90;;;-141.84;52.36;20155.28;5075494;28;20228;-77
2023/03/19 07:38:58;;;;;;;11.27;9.27;;;12.30;99.90;;;-141.84;52.62;20114.63;5075105;28;20220;-77
2023/03/19 07:41:26;;;;;;;14.10;9.10;;;12.30;99.90;;;-141.84;52.29;20130.91;5075113;28;20200;-76
2023/03/19 07:43:54;;;;;;;12.60;9.03;;;12.40;99.90;;;-141.84;51.43;20226.44;5075019;28;20668;-76
2023/03/19 07:46:22;;;;;;;10.17;9.10;;;12.50;99.90;;;-141.84;52.20;20157.31;5074744;28;20227;-77
2023/03/19 07:48:51;;;;;;;11.77;8.30;;;12.50;99.90;;;-141.84;51.90;20210.16;5075092;28;20228;-76
2023/03/19 07:51:20;;;;;;;10.50;9.03;;;12.60;99.90;;;-141.84;51.92;20151.22;5074650;28;20600;-76
2023/03/19 07:53:49;;;;;;;10.57;9.13;;;12.70;99.90;;;-141.84;51.92;20181.72;5074012;28;20239;-77
2023/03/19 07:56:17;;;;;;;10.50;8.77;;;12.70;99.90;;;-141.84;51.99;20165.44;5074909;28;20564;-76
2023/03/19 07:58:45;;;;;;;11.57;9.10;;;12.70;99.90;;;-141.84;52.01;20191.88;5075297;28;20228;-76
2023/03/19 08:01:14;;;;;;;9.80;8.73;;;12.80;99.90;;;-141.84;51.92;20175.63;5074463;28;20716;-77
2023/03/19 08:03:42;;;;;;;10.97;9.10;;;12.80;99.90;;;-141.84;52.06;20187.81;5074171;28;20229;-76
2023/03/19 08:06:11;;;;;;;10.93;8.53;;;12.80;99.90;;;-141.84;52.28;20155.28;5074181;28;20228;-75
2023/03/19 08:08:39;;;;;;;10.93;9.00;;;12.80;99.90;;;-141.84;52.12;20202.03;5074793;28;20278;-76
2023/03/19 08:11:09;;;;;;;10.77;9.40;;;12.80;99.90;;;-141.84;51.95;20197.97;5076532;28;20208;-74
2023/03/19 08:13:37;;;;;;;16.93;9.93;;;12.80;99.90;;;-141.84;51.91;20179.69;5094737;28;20604;-76
2023/03/19 08:16:07;;;;;;;9.97;8.60;;;12.90;99.90;;;-141.84;51.92;20228.47;5095092;28;20253;-76
2023/03/19 08:18:35;;;;;;;9.83;8.43;;;13.00;99.90;;;-141.84;51.24;20212.19;5094552;28;20715;-74
2023/03/19 08:21:04;;;;;;;10.50;9.07;;;13.10;99.90;;;-141.84;51.38;20216.25;5090673;28;20580;-76
2023/03/19 08:23:32;;;;;;;9.77;8.77;;;13.20;99.90;;;-141.84;51.26;20271.16;5074218;28;20207;-74
2023/03/19 08:26:01;;;;;;;9.73;8.73;;;13.30;99.90;;;-141.84;50.52;20281.31;5074506;28;20695;-76
2023/03/19 08:28:30;;;;;;;11.32;9.07;;;13.50;99.90;;;-141.84;50.10;20297.56;5074325;28;20263;-75
2023/03/19 08:30:58;;;;;;;9.57;8.13;;;13.70;99.90;;;-141.84;49.57;20389.03;5074222;28;20224;-76
2023/03/19 08:33:27;;;;;;;13.02;9.25;;;13.90;99.90;;;-141.84;49.03;20382.94;5073764;28;20239;-76
2023/03/19 08:36:06;;;;;;;9.88;8.40;;;14.00;99.90;;;-141.84;49.04;20413.44;5075522;28;20224;-74
2023/03/19 08:38:35;;;;;;;9.75;7.80;;;14.20;99.90;;;-141.84;48.57;20476.44;5075103;28;20279;-75
2023/03/19 08:41:03;;;;;;;12.75;8.65;;;14.50;99.90;;;-141.84;48.15;20500.84;5073625;28;20201;-76
2023/03/19 08:43:35;;;;;;;9.68;8.60;;;14.70;99.90;;;-141.84;47.89;20521.16;5073847;28;20236;-76
2023/03/19 08:46:04;;;;;;;9.13;8.23;;;14.90;99.90;;;-141.84;47.82;20531.31;5073649;28;20601;-76
2023/03/19 08:48:33;;;;;;;9.43;8.02;;;14.90;99.90;;;-141.84;47.20;20588.25;5072750;28;20232;-74
2023/03/19 08:51:03;;;;;;;9.30;7.47;;;15.20;99.90;;;-141.84;47.12;20574.00;5072848;28;20732;-77
2023/03/19 08:53:32;;;;;;;10.02;8.18;;;15.30;99.90;;;-141.84;48.01;20565.88;5071560;28;20723;-76
2023/03/19 08:56:05;;;;;;;10.48;8.32;;;15.30;99.90;;;-141.84;48.07;20557.75;5072516;28;20566;-73
2023/03/19 08:58:35;;;;;;;10.32;7.97;;;15.30;99.90;;;-141.84;47.93;20590.28;5072594;28;20236;-78
2023/03/19 09:01:08;;;;;;;10.50;7.80;;;15.30;99.90;;;-141.84;48.48;20545.56;5072277;28;20559;-78
2023/03/19 09:03:37;;;;;;;10.60;7.70;;;15.30;99.90;;;-141.84;48.50;20519.13;5071519;28;20643;-76
2023/03/19 09:06:09;;;;;;;10.73;8.07;;;15.20;99.90;;;-141.84;48.69;20525.22;5072185;28;20607;-77
2023/03/19 09:08:38;;;;;;;9.63;7.40;;;15.20;99.90;;;-141.84;48.93;20531.31;5072284;28;20185;-76
2023/03/19 09:11:06;;;;;;;11.35;8.48;;;15.20;99.90;;;-141.84;48.01;20608.56;5072403;28;20200;-77
2023/03/19 09:13:37;;;;;;;8.23;7.28;;;15.30;99.90;;;-141.84;48.07;20567.91;5072369;28;20234;-77
2023/03/19 09:16:06;;;;;;;8.43;7.32;;;15.20;99.90;;;-141.84;48.27;20551.66;5072311;28;20232;-74
2023/03/19 09:18:35;;;;;;;9.80;7.38;;;15.20;99.90;;;-141.84;48.79;20511.00;5071590;28;20228;-73
2023/03/19 09:21:04;;;;;;;9.27;7.18;;;15.10;99.90;;;-141.84;48.30;20508.97;5071686;28;20224;-74
2023/03/19 09:23:33;;;;;;;8.88;7.03;;;15.10;99.90;;;-141.84;48.78;20537.44;5071481;28;20571;-74
2023/03/19 09:26:01;;;;;;;9.27;7.45;;;15.00;99.90;;;-141.84;48.71;20523.19;5071660;28;20843;-75
2023/03/19 09:28:29;;;;;;;10.88;7.75;;;15.10;99.90;;;-141.84;48.36;20543.53;5071308;28;20735;-73
2023/03/19 09:31:05;;;;;;;8.98;7.50;;;15.10;99.90;;;-141.84;48.31;20541.50;5071828;28;20278;-73
2023/03/19 09:33:34;;;;;;;8.48;7.30;;;15.10;99.90;;;-141.84;48.03;20592.31;5071777;28;20220;-73
2023/03/19 09:36:02;;;;;;;9.55;7.30;;;15.30;99.90;;;-141.84;48.13;20594.34;5071536;28;20731;-74
2023/03/19 09:38:30;;;;;;;8.68;7.60;;;15.30;99.90;;;-141.84;48.40;20582.16;5072599;28;20221;-73
2023/03/19 09:41:10;;;;;;;9.75;7.95;;;15.40;99.90;;;-141.84;48.53;20594.34;5071822;28;20204;-73
2023/03/19 09:44:00;;;;;;;8.85;7.22;;;15.40;99.90;;;-141.84;47.88;20598.41;5071494;28;20746;-74
2023/03/19 09:46:42;;;;;;;10.95;7.22;;;15.50;99.90;;;-141.84;47.82;20641.09;5065614;28;20220;-74
2023/03/19 09:49:21;;;;;;;8.32;6.75;;;15.60;99.90;;;-141.84;46.87;20702.09;5069936;28;20229;-73
2023/03/19 09:51:54;;;;;;;7.57;6.88;;;15.80;99.90;;;-141.84;46.36;20706.16;5071193;28;20220;-73
2023/03/19 09:54:35;;;;;;;9.73;7.00;;;16.00;99.90;;;-141.84;45.88;20744.78;5069355;28;20316;-74
2023/03/19 09:57:04;;;;;;;10.45;7.10;;;16.10;99.90;;;-141.84;45.76;20724.44;5070903;28;20223;-73
2023/03/19 09:59:32;;;;;;;8.68;6.93;;;16.20;99.90;;;-141.84;45.50;20728.50;5071555;28;20240;-75
2023/03/19 10:02:40;;;;;;;8.15;7.35;;;16.20;99.90;;;-141.84;45.48;20773.22;5071857;28;20308;-74
2023/03/19 10:05:25;;;;;;;9.77;7.32;;;16.20;99.90;;;-141.84;45.55;20677.69;5076409;28;20223;-73
2023/03/19 10:08:32;;;;;;;8.35;6.20;;;16.20;99.90;;;-141.84;45.59;20712.25;5091628;28;20203;-74